createdAt,value
2023-05-19T00:02:22.904Z,10.86
2023-05-19T00:04:51.091Z,10.45
2023-05-19T00:07:20.429Z,10.55
2023-05-19T00:09:48.797Z,10.53
2023-05-19T00:12:17.273Z,10.46
2023-05-19T00:14:47.038Z,10.87
2023-05-19T00:17:16.901Z,10.72
2023-05-19T00:19:45.174Z,10.67
2023-05-19T00:22:13.019Z,10.51
2023-05-19T00:24:40.769Z,10.57
2023-05-19T00:27:08.638Z,10.60
2023-05-19T00:29:36.386Z,10.45
2023-05-19T00:32:06.275Z,10.79
2023-05-19T00:34:34.301Z,10.94
2023-05-19T00:37:02.073Z,10.95
2023-05-19T00:39:29.816Z,10.57
2023-05-19T00:41:57.579Z,10.78
2023-05-19T00:44:25.307Z,10.38
2023-05-19T00:46:53.100Z,10.09
2023-05-19T00:49:22.268Z,10.66
2023-05-19T00:51:50.664Z,10.54
2023-05-19T00:54:18.662Z,10.26
2023-05-19T00:56:46.425Z,10.57
2023-05-19T00:59:14.228Z,10.21
2023-05-19T01:01:42.051Z,10.17
2023-05-19T01:04:11.375Z,10.06
2023-05-19T01:06:40.976Z,10.38
2023-05-19T01:09:09.075Z,10.09
2023-05-19T01:11:36.838Z,10.10
2023-05-19T01:14:04.639Z,9.92
2023-05-19T01:16:38.060Z,10.32
2023-05-19T01:19:21.900Z,10.11
2023-05-19T01:22:28.851Z,10.03
2023-05-19T01:25:32.336Z,9.74
2023-05-19T01:28:27.398Z,10.17
2023-05-19T01:30:59.378Z,10.28
2023-05-19T01:33:29.651Z,10.31
2023-05-19T01:35:59.299Z,10.18
2023-05-19T01:38:29.377Z,10.11
2023-05-19T01:40:58.344Z,10.08
2023-05-19T01:43:28.666Z,9.80
2023-05-19T01:45:59.011Z,10.26
2023-05-19T01:48:28.099Z,9.89
2023-05-19T01:50:57.311Z,9.44
2023-05-19T01:53:25.379Z,9.14
2023-05-19T01:55:58.385Z,8.94
2023-05-19T01:58:36.727Z,8.89
2023-05-19T02:01:14.277Z,8.82
2023-05-19T02:03:55.051Z,8.76
2023-05-19T02:06:33.834Z,8.61
2023-05-19T02:09:05.354Z,8.92
2023-05-19T02:11:38.570Z,8.80
2023-05-19T02:14:14.704Z,8.93
2023-05-19T02:16:46.638Z,8.87
2023-05-19T02:19:25.825Z,9.41
2023-05-19T02:21:54.147Z,9.20
2023-05-19T02:24:22.828Z,8.84
2023-05-19T02:26:51.843Z,9.48
2023-05-19T02:29:20.195Z,9.51
2023-05-19T02:31:49.398Z,8.87
2023-05-19T02:34:17.225Z,8.68
2023-05-19T02:36:45.139Z,8.89
2023-05-19T02:39:13.388Z,8.78
2023-05-19T02:41:41.153Z,9.15
2023-05-19T02:44:08.925Z,9.21
2023-05-19T02:46:36.721Z,8.95
2023-05-19T02:49:05.932Z,9.54
2023-05-19T02:51:33.667Z,9.48
2023-05-19T02:54:01.416Z,8.70
2023-05-19T02:56:29.242Z,8.97
2023-05-19T02:58:58.468Z,9.09
2023-05-19T03:01:26.377Z,8.95
2023-05-19T03:03:54.220Z,9.13
2023-05-19T03:06:24.331Z,8.88
2023-05-19T03:08:52.365Z,8.86
2023-05-19T03:11:20.122Z,8.88
2023-05-19T03:13:47.865Z,9.02
2023-05-19T03:16:15.641Z,8.85
2023-05-19T03:18:44.072Z,8.43
2023-05-19T03:21:11.854Z,8.60
2023-05-19T03:23:41.137Z,8.61
2023-05-19T03:26:08.957Z,8.98
2023-05-19T03:28:36.686Z,8.53
2023-05-19T03:31:04.625Z,8.84
2023-05-19T03:33:32.447Z,8.84
2023-05-19T03:36:00.255Z,8.87
2023-05-19T03:38:27.994Z,8.80
2023-05-19T03:40:57.087Z,8.78
2023-05-19T03:43:24.881Z,8.89
2023-05-19T03:45:53.537Z,8.63
2023-05-19T03:48:21.482Z,8.80
2023-05-19T03:50:50.164Z,8.91
2023-05-19T03:53:17.914Z,8.85
2023-05-19T03:55:46.358Z,8.89
2023-05-19T03:58:15.951Z,9.44
2023-05-19T04:00:43.872Z,8.70
2023-05-19T04:03:11.809Z,8.47
2023-05-19T04:05:39.814Z,8.60
2023-05-19T04:08:07.584Z,8.73
2023-05-19T04:10:35.360Z,8.85
2023-05-19T04:13:03.193Z,9.15
2023-05-19T04:15:32.383Z,10.04
2023-05-19T04:18:00.358Z,9.99
2023-05-19T04:20:28.150Z,9.65
2023-05-19T04:22:55.900Z,9.73
2023-05-19T04:25:25.279Z,9.67
2023-05-19T04:27:53.142Z,9.58
2023-05-19T04:30:22.556Z,9.79
2023-05-19T04:32:53.760Z,10.27
2023-05-19T04:35:22.534Z,10.59
2023-05-19T04:37:50.347Z,10.28
2023-05-19T04:40:18.114Z,10.80
2023-05-19T04:42:46.222Z,10.85
2023-05-19T04:45:14.875Z,10.67
2023-05-19T04:47:43.183Z,11.00
2023-05-19T04:50:12.926Z,11.16
2023-05-19T04:52:41.675Z,11.08
2023-05-19T04:55:11.281Z,11.43
2023-05-19T04:57:39.120Z,11.37
2023-05-19T05:00:12.230Z,12.02
2023-05-19T05:02:40.083Z,11.64
2023-05-19T05:05:09.460Z,11.28
2023-05-19T05:07:38.576Z,11.73
2023-05-19T05:10:07.908Z,11.76
2023-05-19T05:12:36.700Z,12.15
2023-05-19T05:15:06.910Z,12.07
2023-05-19T05:17:35.585Z,12.40
2023-05-19T05:20:06.160Z,12.36
2023-05-19T05:22:34.640Z,12.32
2023-05-19T05:25:04.837Z,12.54
2023-05-19T05:27:32.745Z,12.55
2023-05-19T05:30:00.684Z,12.42
2023-05-19T05:32:28.563Z,12.57
2023-05-19T05:34:56.538Z,12.39
2023-05-19T05:37:24.288Z,12.29
2023-05-19T05:39:52.077Z,12.31
2023-05-19T05:42:21.340Z,12.86
2023-05-19T05:44:49.459Z,12.47
2023-05-19T05:47:17.767Z,12.60
2023-05-19T05:49:48.192Z,12.46
2023-05-19T05:52:16.853Z,12.46
2023-05-19T05:54:46.324Z,12.94
2023-05-19T05:57:14.568Z,12.64
2023-05-19T05:59:45.439Z,13.07
2023-05-19T06:02:13.308Z,13.34
2023-05-19T06:04:41.874Z,13.53
2023-05-19T06:07:09.681Z,13.67
2023-05-19T06:09:37.433Z,13.47
2023-05-19T06:12:06.604Z,14.20
2023-05-19T06:14:34.399Z,14.25
2023-05-19T06:17:03.532Z,14.23
2023-05-19T06:19:31.833Z,14.28
2023-05-19T06:21:59.622Z,14.37
2023-05-19T06:24:27.423Z,14.33
2023-05-19T06:26:55.163Z,14.81
2023-05-19T06:29:22.919Z,14.30
2023-05-19T06:31:50.731Z,14.58
2023-05-19T06:34:21.001Z,14.40
2023-05-19T06:36:48.748Z,14.63
2023-05-19T06:39:16.514Z,14.55
2023-05-19T06:41:44.253Z,14.82
2023-05-19T06:44:12.370Z,14.81
2023-05-19T06:46:40.735Z,15.00
2023-05-19T06:49:08.520Z,15.27
2023-05-19T06:51:37.662Z,15.21
2023-05-19T06:54:05.521Z,15.00
2023-05-19T06:56:33.363Z,15.14
2023-05-19T06:59:01.160Z,15.74
2023-05-19T07:01:30.170Z,15.15
2023-05-19T07:03:58.155Z,15.91
2023-05-19T07:06:26.090Z,15.41
2023-05-19T07:08:55.256Z,16.10
2023-05-19T07:11:23.399Z,15.86
2023-05-19T07:13:51.153Z,15.91
2023-05-19T07:16:18.994Z,15.90
2023-05-19T07:18:46.783Z,15.37
2023-05-19T07:21:14.603Z,16.19
2023-05-19T07:23:42.354Z,16.35
2023-05-19T07:26:11.692Z,16.57
2023-05-19T07:28:41.494Z,16.37
2023-05-19T07:31:09.544Z,17.32
2023-05-19T07:33:37.314Z,17.01
2023-05-19T07:36:05.494Z,17.09
2023-05-19T07:38:34.706Z,17.21
2023-05-19T07:41:02.605Z,17.70
2023-05-19T07:43:31.790Z,18.09
2023-05-19T07:45:59.682Z,18.34
2023-05-19T07:48:27.451Z,17.84
2023-05-19T07:50:55.254Z,18.38
2023-05-19T07:53:23.016Z,17.67
2023-05-19T07:55:50.819Z,18.23
2023-05-19T07:58:19.601Z,18.62
2023-05-19T08:00:48.736Z,18.17
2023-05-19T08:03:18.403Z,18.14
2023-05-19T08:05:46.343Z,18.61
2023-05-19T08:08:16.909Z,18.40
2023-05-19T08:10:44.846Z,18.78
2023-05-19T08:13:12.741Z,18.58
2023-05-19T08:15:41.139Z,18.83
2023-05-19T08:18:10.423Z,18.49
2023-05-19T08:20:38.208Z,19.04
2023-05-19T08:23:06.126Z,19.04
2023-05-19T08:25:33.928Z,19.32
2023-05-19T08:28:01.775Z,19.18
2023-05-19T08:30:29.588Z,19.17
2023-05-19T08:32:57.413Z,19.56
2023-05-19T08:35:26.757Z,19.68
2023-05-19T08:37:54.625Z,19.43
2023-05-19T08:40:22.458Z,19.14
2023-05-19T08:42:50.712Z,19.41
2023-05-19T08:45:18.824Z,19.32
2023-05-19T08:47:47.483Z,19.39
2023-05-19T08:50:22.945Z,19.72
2023-05-19T08:52:53.914Z,19.87
2023-05-19T08:55:34.306Z,19.85
2023-05-19T08:58:04.566Z,19.09
2023-05-19T09:00:33.774Z,19.79
2023-05-19T09:03:17.562Z,19.99
2023-05-19T09:05:50.270Z,20.31
2023-05-19T09:08:19.425Z,20.18
2023-05-19T09:10:47.426Z,20.42
2023-05-19T09:13:15.219Z,20.15
2023-05-19T09:15:43.564Z,20.45
2023-05-19T09:18:13.423Z,20.84
2023-05-19T09:20:42.558Z,21.02
2023-05-19T09:23:14.814Z,20.61
2023-05-19T09:25:50.408Z,20.23
2023-05-19T09:28:25.282Z,20.92
2023-05-19T09:31:00.633Z,20.58
2023-05-19T09:33:28.542Z,20.38
2023-05-19T09:35:56.799Z,20.71
2023-05-19T09:38:25.603Z,21.10
2023-05-19T09:40:57.496Z,21.24
2023-05-19T09:43:25.350Z,21.12
2023-05-19T09:45:56.702Z,21.86
2023-05-19T09:48:27.654Z,21.79
2023-05-19T09:50:56.690Z,21.84
2023-05-19T09:53:26.182Z,22.02
2023-05-19T09:55:58.827Z,21.30
2023-05-19T09:58:27.120Z,21.31
2023-05-19T10:00:55.487Z,21.07
2023-05-19T10:03:24.784Z,21.97
2023-05-19T10:05:54.442Z,21.64
2023-05-19T10:08:24.459Z,22.76
2023-05-19T10:10:52.457Z,24.05
2023-05-19T10:13:22.960Z,22.71
2023-05-19T10:18:26.873Z,24.49
2023-05-19T10:20:55.755Z,22.83
2023-05-19T10:23:24.008Z,23.03
2023-05-19T10:25:53.277Z,24.11
2023-05-19T10:28:27.949Z,23.93
2023-05-19T10:30:59.775Z,23.62
2023-05-19T10:33:41.170Z,25.11
2023-05-19T10:36:24.659Z,24.37
2023-05-19T10:38:59.952Z,25.48
2023-05-19T10:41:32.744Z,23.82
2023-05-19T10:44:10.909Z,24.45
2023-05-19T10:46:41.356Z,23.20
2023-05-19T10:49:09.071Z,23.17
2023-05-19T10:51:37.222Z,22.12
2023-05-19T10:54:11.521Z,22.74
2023-05-19T10:56:42.517Z,24.01
2023-05-19T10:59:32.215Z,24.48
2023-05-19T11:02:04.714Z,24.43
2023-05-19T11:04:51.113Z,23.33
2023-05-19T11:07:20.968Z,22.69
2023-05-19T11:09:52.497Z,22.33
2023-05-19T11:12:25.099Z,22.81
2023-05-19T11:14:56.095Z,23.56
2023-05-19T11:17:27.448Z,22.75
2023-05-19T11:19:56.355Z,22.68
2023-05-19T11:22:26.243Z,22.24
2023-05-19T11:24:56.551Z,21.59
2023-05-19T11:27:27.298Z,20.61
2023-05-19T11:29:57.477Z,20.21
2023-05-19T11:32:29.306Z,21.32
2023-05-19T11:34:57.691Z,21.98
2023-05-19T11:37:25.587Z,21.68
2023-05-19T11:39:53.877Z,23.31
2023-05-19T11:42:21.773Z,22.73
2023-05-19T11:44:50.167Z,22.83
2023-05-19T11:47:19.237Z,22.28
2023-05-19T11:49:49.634Z,22.97
2023-05-19T11:52:17.514Z,21.79
2023-05-19T11:54:49.878Z,22.86
2023-05-19T11:57:18.249Z,22.35
2023-05-19T11:59:48.246Z,21.80
2023-05-19T12:02:19.883Z,22.33
2023-05-19T12:04:48.346Z,22.68
2023-05-19T12:07:18.681Z,22.80
2023-05-19T12:09:47.044Z,23.55
2023-05-19T12:12:15.907Z,24.17
2023-05-19T12:14:44.068Z,22.25
2023-05-19T12:17:13.351Z,23.41
2023-05-19T12:19:44.952Z,24.17
2023-05-19T12:22:13.804Z,23.27
2023-05-19T12:24:42.758Z,24.04
2023-05-19T12:27:18.190Z,24.49
2023-05-19T12:29:51.258Z,24.95
2023-05-19T12:32:19.705Z,24.80
2023-05-19T12:34:49.181Z,24.96
2023-05-19T12:37:16.986Z,24.32
2023-05-19T12:39:45.413Z,24.38
2023-05-19T12:42:13.555Z,24.33
2023-05-19T12:44:46.680Z,24.24
2023-05-19T12:47:14.914Z,23.57
2023-05-19T12:49:56.889Z,23.72
2023-05-19T12:52:24.769Z,23.57
2023-05-19T12:54:59.655Z,24.05
2023-05-19T12:57:27.813Z,24.66
2023-05-19T13:00:01.502Z,23.95
2023-05-19T13:02:29.400Z,22.79
2023-05-19T13:04:58.775Z,24.07
2023-05-19T13:07:26.605Z,23.41
2023-05-19T13:09:54.343Z,22.61
2023-05-19T13:12:22.123Z,22.19
2023-05-19T13:14:49.835Z,21.90
2023-05-19T13:17:18.012Z,21.60
2023-05-19T13:19:45.991Z,22.09
2023-05-19T13:22:15.123Z,23.01
2023-05-19T13:24:42.865Z,24.17
2023-05-19T13:27:10.646Z,24.98
2023-05-19T13:29:38.352Z,24.96
2023-05-19T13:32:06.628Z,25.31
2023-05-19T13:34:34.356Z,24.99
2023-05-19T13:37:02.130Z,25.01
2023-05-19T13:39:31.282Z,25.61
2023-05-19T13:41:59.709Z,26.81
2023-05-19T13:44:27.611Z,27.26
2023-05-19T13:46:55.353Z,25.83
2023-05-19T13:49:23.206Z,25.52
2023-05-19T13:51:50.941Z,25.48
2023-05-19T13:54:19.073Z,24.98
2023-05-19T13:56:48.711Z,25.12
2023-05-19T13:59:17.228Z,26.09
2023-05-19T14:01:45.418Z,23.35
2023-05-19T14:04:14.136Z,22.73
2023-05-19T14:06:42.032Z,23.36
2023-05-19T14:09:09.782Z,24.92
2023-05-19T14:11:37.536Z,23.57
2023-05-19T14:14:08.392Z,23.70
2023-05-19T14:16:38.297Z,25.33
2023-05-19T14:19:06.220Z,26.08
2023-05-19T14:21:34.062Z,23.79
2023-05-19T14:24:02.503Z,23.09
2023-05-19T14:26:30.309Z,25.24
2023-05-19T14:28:58.226Z,27.02
2023-05-19T14:31:27.393Z,27.25
2023-05-19T14:33:55.730Z,27.67
2023-05-19T14:36:23.534Z,25.75
2023-05-19T14:38:53.326Z,26.61
2023-05-19T14:41:21.543Z,25.88
2023-05-19T14:43:49.276Z,24.68
2023-05-19T14:46:17.163Z,25.34
2023-05-19T14:48:46.411Z,26.12
2023-05-19T14:51:14.200Z,26.97
2023-05-19T14:53:41.981Z,26.87
2023-05-19T14:56:09.724Z,26.93
2023-05-19T14:58:37.491Z,26.80
2023-05-19T15:01:05.573Z,27.60
2023-05-19T15:03:33.355Z,27.15
2023-05-19T15:06:02.490Z,26.28
2023-05-19T15:08:30.265Z,26.86
2023-05-19T15:10:58.050Z,26.73
2023-05-19T15:13:26.346Z,26.59
2023-05-19T15:16:08.357Z,27.05
2023-05-19T15:18:43.466Z,26.33
2023-05-19T15:21:12.745Z,25.99
2023-05-19T15:23:40.543Z,25.70
2023-05-19T15:26:08.387Z,26.73
2023-05-19T15:28:36.122Z,26.04
2023-05-19T15:31:04.054Z,26.12
2023-05-19T15:33:32.154Z,25.88
2023-05-19T15:35:59.936Z,26.59
2023-05-19T15:38:30.117Z,25.34
2023-05-19T15:40:58.460Z,25.60
2023-05-19T15:43:26.244Z,25.77
2023-05-19T15:45:55.218Z,25.73
2023-05-19T15:48:23.044Z,24.94
2023-05-19T15:50:51.917Z,25.66
2023-05-19T15:53:20.262Z,25.08
2023-05-19T15:55:49.359Z,25.15
2023-05-19T15:58:17.779Z,25.46
2023-05-19T16:00:45.621Z,25.30
2023-05-19T16:03:13.470Z,24.35
2023-05-19T16:05:41.290Z,25.17
2023-05-19T16:08:09.053Z,24.41
2023-05-19T16:10:36.850Z,24.56
2023-05-19T16:13:05.995Z,25.56
2023-05-19T16:15:33.745Z,25.26
2023-05-19T16:18:01.573Z,25.02
2023-05-19T16:20:29.834Z,25.11
2023-05-19T16:22:57.771Z,24.27
2023-05-19T16:25:25.914Z,25.03
2023-05-19T16:27:53.656Z,24.32
2023-05-19T16:30:23.098Z,23.42
2023-05-19T16:32:53.072Z,24.35
2023-05-19T16:35:21.137Z,24.56
2023-05-19T16:37:49.104Z,23.76
2023-05-19T16:40:17.029Z,22.64
2023-05-19T16:42:44.774Z,22.92
2023-05-19T16:45:12.764Z,23.20
2023-05-19T16:47:41.922Z,23.30
2023-05-19T16:50:10.811Z,23.39
2023-05-19T16:52:38.609Z,22.10
2023-05-19T16:55:07.065Z,23.28
2023-05-19T16:57:34.811Z,22.44
2023-05-19T17:00:03.600Z,21.72
2023-05-19T17:02:31.463Z,22.31
2023-05-19T17:05:00.642Z,22.54
2023-05-19T17:07:29.157Z,22.81
2023-05-19T17:09:57.057Z,22.80
2023-05-19T17:12:24.858Z,22.65
2023-05-19T17:14:53.019Z,22.58
2023-05-19T17:17:20.784Z,23.44
2023-05-19T17:19:48.507Z,22.53
2023-05-19T17:22:17.590Z,22.53
2023-05-19T17:24:45.751Z,22.79
2023-05-19T17:29:42.940Z,21.92
2023-05-19T17:32:10.736Z,22.02
2023-05-19T17:34:39.203Z,21.31
2023-05-19T17:37:06.968Z,21.58
2023-05-19T17:39:36.181Z,21.53
2023-05-19T17:42:03.946Z,21.54
2023-05-19T17:44:31.674Z,21.34
2023-05-19T17:47:00.393Z,21.12
2023-05-19T17:49:28.169Z,21.19
2023-05-19T17:51:56.441Z,21.26
2023-05-19T17:54:26.214Z,21.06
2023-05-19T17:56:59.137Z,20.41
2023-05-19T17:59:27.437Z,20.60
2023-05-19T18:01:55.862Z,20.41
2023-05-19T18:04:23.857Z,20.41
2023-05-19T18:06:52.983Z,20.43
2023-05-19T18:09:21.366Z,21.04
2023-05-19T18:11:49.237Z,20.23
2023-05-19T18:14:18.492Z,19.98
2023-05-19T18:16:47.211Z,19.76
2023-05-19T18:19:15.105Z,19.87
2023-05-19T18:21:43.157Z,19.88
2023-05-19T18:24:11.358Z,19.60
2023-05-19T18:26:41.879Z,19.39
2023-05-19T18:29:10.423Z,18.87
2023-05-19T18:31:39.802Z,19.68
2023-05-19T18:34:07.778Z,19.14
2023-05-19T18:36:36.204Z,18.66
2023-05-19T18:39:04.499Z,18.20
2023-05-19T18:41:32.613Z,17.90
2023-05-19T18:44:00.422Z,18.05
2023-05-19T18:46:28.175Z,17.68
2023-05-19T18:48:57.366Z,17.99
2023-05-19T18:51:25.128Z,18.02
2023-05-19T18:53:52.934Z,17.97
2023-05-19T18:56:24.254Z,17.78
2023-05-19T18:58:52.066Z,17.51
2023-05-19T19:01:19.890Z,17.35
2023-05-19T19:03:49.222Z,17.61
2023-05-19T19:06:20.612Z,17.47
2023-05-19T19:08:50.505Z,17.06
2023-05-19T19:11:18.385Z,17.58
2023-05-19T19:13:46.294Z,17.58
2023-05-19T19:16:14.043Z,17.50
2023-05-19T19:18:42.098Z,17.42
2023-05-19T19:21:09.898Z,17.13
2023-05-19T19:23:39.259Z,17.43
2023-05-19T19:26:08.539Z,17.12
2023-05-19T19:28:36.511Z,17.54
2023-05-19T19:31:04.395Z,17.02
2023-05-19T19:33:32.174Z,16.93
2023-05-19T19:36:00.038Z,17.14
2023-05-19T19:38:27.970Z,16.89
2023-05-19T19:40:57.140Z,17.24
2023-05-19T19:43:24.870Z,16.84
2023-05-19T19:45:59.902Z,16.81
2023-05-19T19:48:27.932Z,16.84
2023-05-19T19:50:55.945Z,16.93
2023-05-19T19:53:23.858Z,16.55
2023-05-19T19:56:00.000Z,16.84
2023-05-19T19:58:28.662Z,16.44
2023-05-19T20:01:00.244Z,16.19
2023-05-19T20:03:28.359Z,16.38
2023-05-19T20:05:57.568Z,16.16
2023-05-19T20:08:25.823Z,16.03
2023-05-19T20:10:53.873Z,16.46
2023-05-19T20:13:23.016Z,16.59
2023-05-19T20:15:51.097Z,16.44
2023-05-19T20:18:18.937Z,16.36
2023-05-19T20:20:46.689Z,15.71
2023-05-19T20:23:16.213Z,15.89
2023-05-19T20:26:02.457Z,16.43
2023-05-19T20:28:35.052Z,16.52
2023-05-19T20:31:02.884Z,16.04
2023-05-19T20:33:31.681Z,16.24
2023-05-19T20:35:59.534Z,16.35
2023-05-19T20:38:27.313Z,16.41
2023-05-19T20:40:55.149Z,16.19
2023-05-19T20:43:22.909Z,15.88
2023-05-19T20:45:52.327Z,15.87
2023-05-19T20:48:20.179Z,16.07
2023-05-19T20:50:47.927Z,16.24
2023-05-19T20:53:15.746Z,15.90
2023-05-19T20:55:45.418Z,15.65
2023-05-19T20:58:13.229Z,15.41
2023-05-19T21:00:41.300Z,15.48
2023-05-19T21:03:11.615Z,15.39
2023-05-19T21:05:39.532Z,15.71
2023-05-19T21:08:12.697Z,15.64
2023-05-19T21:10:40.959Z,15.40
2023-05-19T21:13:08.851Z,15.58
2023-05-19T21:15:36.713Z,15.55
2023-05-19T21:18:04.641Z,15.66
2023-05-19T21:20:34.136Z,15.29
2023-05-19T21:23:02.237Z,15.30
2023-05-19T21:25:30.983Z,15.16
2023-05-19T21:27:59.206Z,15.73
2023-05-19T21:30:26.998Z,15.26
2023-05-19T21:32:54.826Z,14.99
2023-05-19T21:35:22.778Z,15.09
2023-05-19T21:37:51.899Z,15.11
2023-05-19T21:40:19.698Z,14.63
2023-05-19T21:42:47.468Z,14.81
2023-05-19T21:45:15.324Z,14.46
2023-05-19T21:47:43.117Z,14.88
2023-05-19T21:50:15.573Z,15.08
2023-05-19T21:52:43.350Z,14.60
2023-05-19T21:55:12.592Z,14.98
2023-05-19T21:57:40.462Z,14.55
2023-05-19T22:00:12.888Z,14.57
2023-05-19T22:02:40.839Z,14.67
2023-05-19T22:05:09.396Z,14.50
2023-05-19T22:07:37.308Z,14.43
2023-05-19T22:10:05.719Z,14.68
2023-05-19T22:12:34.860Z,13.77
2023-05-19T22:15:03.542Z,13.94
2023-05-19T22:17:31.756Z,13.81
2023-05-19T22:19:59.576Z,13.68
2023-05-19T22:22:27.328Z,14.24
2023-05-19T22:24:55.339Z,13.97
2023-05-19T22:27:23.183Z,13.89
2023-05-19T22:29:52.318Z,13.70
2023-05-19T22:32:20.120Z,13.20
2023-05-19T22:34:47.958Z,13.20
2023-05-19T22:37:15.768Z,13.58
2023-05-19T22:39:43.503Z,13.23
2023-05-19T22:42:11.589Z,13.21
2023-05-19T22:44:39.341Z,13.29
2023-05-19T22:47:13.295Z,13.43
2023-05-19T22:49:41.107Z,13.08
2023-05-19T22:52:10.727Z,13.31
2023-05-19T22:54:38.862Z,13.17
2023-05-19T22:57:07.087Z,13.02
2023-05-19T22:59:35.483Z,13.07
2023-05-19T23:02:03.236Z,13.02
2023-05-19T23:04:33.105Z,13.31
2023-05-19T23:07:01.198Z,13.01
2023-05-19T23:09:29.188Z,13.44
2023-05-19T23:11:56.939Z,13.05
2023-05-19T23:14:25.873Z,13.35
2023-05-19T23:16:54.911Z,13.19
2023-05-19T23:19:22.885Z,13.02
2023-05-19T23:21:52.211Z,12.67
2023-05-19T23:24:19.969Z,12.87
2023-05-19T23:26:47.762Z,13.16
2023-05-19T23:29:15.752Z,13.17
2023-05-19T23:31:43.649Z,13.13
2023-05-19T23:34:11.542Z,12.90
2023-05-19T23:36:39.299Z,12.89
2023-05-19T23:39:08.416Z,12.82
2023-05-19T23:41:36.725Z,12.93
2023-05-19T23:44:04.610Z,12.50
2023-05-19T23:46:32.422Z,13.01
2023-05-19T23:49:00.533Z,12.80
2023-05-19T23:51:28.290Z,13.23
2023-05-19T23:53:56.101Z,12.96
2023-05-19T23:56:25.365Z,12.45
2023-05-19T23:58:53.147Z,12.76
